Time;durP1;ratioP1;P1;durP2;ratioP2;P2;SDS_P1;SDS_P2;PMS_P1;PMS_P2;Temp;Humidity;BMP_temperature;BMP_pressure;BME280_temperature;BME280_humidity;BME280_pressure;Samples;Min_cycle;Max_cycle;Signal;HPM_P1;HPM_P2
2020/12/27 00:00:44;;;;;;;11.70;7.70;;;3.10;99.90;;;;;;4995870;28;20454;-66
2020/12/27 00:03:10;;;;;;;8.13;6.10;;;3.10;99.90;;;;;;4997363;28;20835;-66
2020/12/27 00:05:37;;;;;;;9.90;6.40;;;3.10;99.90;;;;;;4996680;28;20473;-66
2020/12/27 00:08:03;;;;;;;9.10;6.63;;;3.10;99.90;;;;;;4996212;28;20509;-66
2020/12/27 00:10:29;;;;;;;8.53;6.80;;;3.20;99.90;;;;;;4995849;28;20927;-66
2020/12/27 00:12:55;;;;;;;9.53;7.10;;;3.20;99.90;;;;;;4997184;28;20772;-67
2020/12/27 00:15:21;;;;;;;9.20;6.60;;;3.20;99.90;;;;;;4996481;28;20469;-67
2020/12/27 00:17:48;;;;;;;8.47;5.90;;;3.20;99.90;;;;;;4996390;28;20465;-62
2020/12/27 00:20:14;;;;;;;10.47;6.27;;;3.10;99.90;;;;;;4995505;28;20462;-61
2020/12/27 00:22:40;;;;;;;13.37;6.60;;;3.10;99.90;;;;;;4995961;28;20461;-61
2020/12/27 00:25:06;;;;;;;10.13;6.40;;;3.10;99.90;;;;;;4995640;28;20958;-61
2020/12/27 00:27:32;;;;;;;9.13;6.30;;;3.10;99.90;;;;;;4995739;28;20513;-61
2020/12/27 00:29:58;;;;;;;11.80;6.70;;;3.10;99.90;;;;;;4995917;28;20524;-61
2020/12/27 00:32:27;;;;;;;8.37;6.83;;;3.10;99.90;;;;;;4996057;28;20473;-60
2020/12/27 00:34:54;;;;;;;10.47;6.73;;;3.00;99.90;;;;;;4995798;28;20462;-62
2020/12/27 00:37:21;;;;;;;8.60;5.30;;;3.00;99.90;;;;;;4995718;28;20908;-62
2020/12/27 00:39:47;;;;;;;10.17;5.70;;;3.00;99.90;;;;;;4995672;28;20462;-61
2020/12/27 00:42:13;;;;;;;8.13;6.13;;;3.00;99.90;;;;;;4995351;28;20480;-61
2020/12/27 00:44:39;;;;;;;8.43;6.90;;;2.90;99.90;;;;;;4995618;28;20454;-60
2020/12/27 00:47:05;;;;;;;8.60;7.10;;;3.00;99.90;;;;;;4995701;28;20869;-61
2020/12/27 00:49:31;;;;;;;7.20;5.60;;;3.00;99.90;;;;;;4995746;28;20562;-61
2020/12/27 00:51:58;;;;;;;13.67;6.50;;;2.90;99.90;;;;;;4995368;28;20481;-60
2020/12/27 00:54:24;;;;;;;11.37;6.67;;;2.90;99.90;;;;;;4995943;28;20462;-61
2020/12/27 00:56:51;;;;;;;7.97;6.10;;;2.90;99.90;;;;;;4995656;28;20666;-61
2020/12/27 00:59:17;;;;;;;10.87;7.27;;;2.90;99.90;;;;;;4996034;28;20457;-62
2020/12/27 01:01:43;;;;;;;10.70;6.50;;;2.90;99.90;;;;;;4999793;28;20469;-61
2020/12/27 01:04:09;;;;;;;11.03;6.73;;;2.90;99.90;;;;;;4995981;28;20990;-61
2020/12/27 01:06:37;;;;;;;9.27;6.83;;;2.90;99.90;;;;;;4995696;28;20486;-61
2020/12/27 01:09:05;;;;;;;8.83;7.33;;;2.80;99.90;;;;;;4995515;28;20462;-61
2020/12/27 01:11:31;;;;;;;12.13;7.30;;;2.80;99.90;;;;;;4995772;28;20838;-60
2020/12/27 01:13:57;;;;;;;8.70;6.07;;;2.90;99.90;;;;;;4998874;28;20473;-61
2020/12/27 01:16:24;;;;;;;8.87;6.27;;;2.80;99.90;;;;;;4999331;28;20935;-61
2020/12/27 01:18:51;;;;;;;7.27;5.70;;;2.80;99.90;;;;;;4999633;28;20527;-61
2020/12/27 01:21:24;;;;;;;8.77;6.90;;;2.80;99.90;;;;;;4999635;28;20508;-60
2020/12/27 01:23:50;;;;;;;8.63;6.30;;;2.80;99.90;;;;;;4999090;28;20476;-61
2020/12/27 01:26:17;;;;;;;8.50;6.90;;;2.80;99.90;;;;;;4998616;28;20555;-61
2020/12/27 01:28:43;;;;;;;9.67;6.27;;;2.80;99.90;;;;;;4999010;28;20466;-60
2020/12/27 01:31:09;;;;;;;8.03;6.53;;;2.80;99.90;;;;;;4998783;28;20931;-61
2020/12/27 01:33:35;;;;;;;8.53;6.47;;;2.80;99.90;;;;;;4999234;28;20501;-60
2020/12/27 01:36:01;;;;;;;8.63;7.00;;;2.80;99.90;;;;;;4998490;28;20461;-61
2020/12/27 01:38:27;;;;;;;8.40;5.80;;;2.70;99.90;;;;;;4998909;28;20461;-61
2020/12/27 01:41:01;;;;;;;10.43;5.90;;;2.80;99.90;;;;;;4998727;28;20462;-61
2020/12/27 01:43:28;;;;;;;7.87;6.20;;;2.80;99.90;;;;;;4998743;28;20768;-61
2020/12/27 01:45:54;;;;;;;8.23;6.27;;;2.70;99.90;;;;;;4998950;28;20461;-60
2020/12/27 01:48:22;;;;;;;10.70;6.47;;;2.70;99.90;;;;;;4998551;28;20826;-60
2020/12/27 01:50:48;;;;;;;8.37;6.13;;;2.70;99.90;;;;;;4998628;28;20461;-61
2020/12/27 01:53:15;;;;;;;8.13;6.37;;;2.70;99.90;;;;;;4998283;28;20489;-61
2020/12/27 01:55:41;;;;;;;7.97;6.20;;;2.70;99.90;;;;;;4998932;28;20504;-61
2020/12/27 01:58:18;;;;;;;8.10;5.20;;;2.70;99.90;;;;;;4998461;28;20457;-62
2020/12/27 02:00:46;;;;;;;6.63;5.40;;;2.70;99.90;;;;;;4998543;28;20457;-60
2020/12/27 02:03:13;;;;;;;8.80;6.07;;;2.70;99.90;;;;;;4998424;28;20516;-59
2020/12/27 02:05:40;;;;;;;9.47;5.60;;;2.70;99.90;;;;;;4998451;28;20834;-61
2020/12/27 02:08:06;;;;;;;9.00;6.00;;;2.70;99.90;;;;;;4998363;28;20520;-61
2020/12/27 02:10:32;;;;;;;7.80;6.43;;;2.70;99.90;;;;;;4998195;28;20522;-61
2020/12/27 02:12:58;;;;;;;7.00;6.13;;;2.70;99.90;;;;;;4998248;28;20472;-62
2020/12/27 02:15:24;;;;;;;6.33;5.70;;;2.70;99.90;;;;;;4998048;28;20501;-61
2020/12/27 02:17:51;;;;;;;8.27;5.80;;;2.70;99.90;;;;;;4997943;28;20956;-61
2020/12/27 02:20:17;;;;;;;8.60;6.60;;;2.70;99.90;;;;;;4998167;28;20770;-62
2020/12/27 02:22:44;;;;;;;7.73;6.33;;;2.70;99.90;;;;;;4998092;28;20457;-61
2020/12/27 02:25:11;;;;;;;7.50;5.50;;;2.70;99.90;;;;;;4997241;28;20461;-61
2020/12/27 02:27:37;;;;;;;9.07;6.40;;;2.70;99.90;;;;;;4998212;28;20536;-61
2020/12/27 02:30:05;;;;;;;8.07;6.33;;;2.70;99.90;;;;;;4998550;28;20501;-61
2020/12/27 02:32:31;;;;;;;8.03;5.90;;;2.70;99.90;;;;;;4999781;28;20930;-62
2020/12/27 02:34:57;;;;;;;7.33;5.00;;;2.70;99.90;;;;;;4998143;28;20461;-61
2020/12/27 02:37:23;;;;;;;7.20;5.80;;;2.70;99.90;;;;;;4997818;28;20505;-61
2020/12/27 02:39:50;;;;;;;8.20;5.50;;;2.70;99.90;;;;;;4997514;28;20752;-60
2020/12/27 02:42:16;;;;;;;5.73;5.13;;;2.70;99.90;;;;;;4997833;28;20486;-61
2020/12/27 02:45:07;;;;;;;9.33;6.90;;;2.60;99.90;;;;;;4997734;28;20477;-60
2020/12/27 02:47:32;;;;;;;9.53;6.43;;;2.70;99.90;;;;;;4997267;28;20478;-60
2020/12/27 02:49:58;;;;;;;8.23;6.30;;;2.70;99.90;;;;;;4997611;28;20472;-60
2020/12/27 02:52:24;;;;;;;7.70;5.50;;;2.60;99.90;;;;;;4997170;28;20485;-61
2020/12/27 02:54:50;;;;;;;6.10;5.50;;;2.70;99.90;;;;;;4997650;28;20839;-61
2020/12/27 02:57:17;;;;;;;7.30;5.67;;;2.70;99.90;;;;;;4997705;28;20935;-61
2020/12/27 02:59:43;;;;;;;11.63;5.60;;;2.60;99.90;;;;;;4997631;28;20839;-60
2020/12/27 03:02:09;;;;;;;6.30;5.50;;;2.60;99.90;;;;;;4997429;28;20472;-60
2020/12/27 03:04:35;;;;;;;8.00;6.00;;;2.70;99.90;;;;;;4997217;28;20483;-61
2020/12/27 03:07:01;;;;;;;6.40;5.40;;;2.70;99.90;;;;;;4997231;28;20477;-61
2020/12/27 03:09:27;;;;;;;9.13;5.60;;;2.70;99.90;;;;;;4997290;28;20458;-61
2020/12/27 03:11:53;;;;;;;8.73;5.03;;;2.70;99.90;;;;;;4997249;28;20935;-61
2020/12/27 03:14:20;;;;;;;6.37;5.73;;;2.70;99.90;;;;;;4998408;28;20931;-61
2020/12/27 03:16:46;;;;;;;6.10;4.83;;;2.70;99.90;;;;;;4997158;28;20458;-61
2020/12/27 03:19:12;;;;;;;6.80;5.17;;;2.70;99.90;;;;;;4997782;28;20469;-62
2020/12/27 03:21:38;;;;;;;6.90;5.20;;;2.70;99.90;;;;;;4997585;28;20458;-61
2020/12/27 03:24:04;;;;;;;5.47;4.53;;;2.70;99.90;;;;;;4997708;28;20458;-61
2020/12/27 03:26:30;;;;;;;6.60;5.37;;;2.70;99.90;;;;;;4997140;28;20929;-60
2020/12/27 03:28:56;;;;;;;6.07;4.97;;;2.70;99.90;;;;;;4996971;28;20927;-60
2020/12/27 03:31:23;;;;;;;5.77;4.37;;;2.70;99.90;;;;;;4996880;28;20496;-61
2020/12/27 03:33:49;;;;;;;7.13;4.77;;;2.70;99.90;;;;;;4996845;28;20476;-61
2020/12/27 03:36:15;;;;;;;5.33;4.60;;;2.70;99.90;;;;;;4996272;28;20453;-60
2020/12/27 03:38:41;;;;;;;4.70;4.20;;;2.70;99.90;;;;;;4996646;28;20462;-59
2020/12/27 03:41:07;;;;;;;6.60;4.87;;;2.80;99.90;;;;;;4996561;28;20520;-61
2020/12/27 03:43:34;;;;;;;6.10;4.83;;;2.70;99.90;;;;;;4996673;28;20798;-61
2020/12/27 03:46:00;;;;;;;7.33;4.50;;;2.70;99.90;;;;;;4996274;28;20868;-60
2020/12/27 03:48:27;;;;;;;4.47;4.07;;;2.70;99.90;;;;;;4996365;28;20552;-60
2020/12/27 03:50:53;;;;;;;8.10;4.37;;;2.70;99.90;;;;;;4996427;28;20489;-61
2020/12/27 03:53:19;;;;;;;8.07;5.07;;;2.70;99.90;;;;;;4996115;28;20579;-60
2020/12/27 03:55:45;;;;;;;6.40;4.53;;;2.70;99.90;;;;;;4996438;28;20500;-60
2020/12/27 03:58:11;;;;;;;5.27;4.47;;;2.70;99.90;;;;;;4996277;28;20458;-60
2020/12/27 04:00:37;;;;;;;4.83;4.17;;;2.70;99.90;;;;;;4995957;28;20494;-61
2020/12/27 04:03:03;;;;;;;5.73;4.57;;;2.70;99.90;;;;;;4996259;28;20824;-60
2020/12/27 04:05:31;;;;;;;4.80;4.20;;;2.70;99.90;;;;;;4996194;28;20462;-60
2020/12/27 04:07:57;;;;;;;8.90;5.10;;;2.70;99.90;;;;;;4996058;28;20808;-61
2020/12/27 04:10:23;;;;;;;6.00;4.27;;;2.60;99.90;;;;;;4996281;28;20848;-59
2020/12/27 04:12:49;;;;;;;5.87;4.50;;;2.60;99.90;;;;;;4996125;28;20589;-60
2020/12/27 04:15:15;;;;;;;5.57;5.00;;;2.60;99.90;;;;;;4988007;28;20489;-61
2020/12/27 04:17:41;;;;;;;9.23;4.70;;;2.60;99.90;;;;;;4996110;28;20521;-60
2020/12/27 04:20:07;;;;;;;6.03;5.17;;;2.60;99.90;;;;;;4996623;28;20473;-60
2020/12/27 04:22:34;;;;;;;4.90;4.20;;;2.60;99.90;;;;;;4995576;28;20931;-61
2020/12/27 04:25:00;;;;;;;6.23;4.97;;;2.60;99.90;;;;;;4996011;28;20486;-60
2020/12/27 04:27:26;;;;;;;6.40;4.03;;;2.60;99.90;;;;;;4995738;28;20517;-60
2020/12/27 04:29:52;;;;;;;5.93;4.63;;;2.60;99.90;;;;;;4995920;28;20509;-61
2020/12/27 04:32:18;;;;;;;5.20;4.70;;;2.60;99.90;;;;;;4995718;28;20466;-61
2020/12/27 04:34:44;;;;;;;7.90;5.20;;;2.50;99.90;;;;;;4996033;28;20462;-61
2020/12/27 04:37:10;;;;;;;6.70;4.97;;;2.50;99.90;;;;;;4995319;28;20458;-61
2020/12/27 04:39:37;;;;;;;6.07;5.10;;;2.50;99.90;;;;;;4995790;28;20465;-61
2020/12/27 04:42:03;;;;;;;6.93;5.23;;;2.50;99.90;;;;;;4995622;28;20470;-61
2020/12/27 04:44:32;;;;;;;6.27;5.00;;;2.50;99.90;;;;;;4995327;28;20461;-61
2020/12/27 04:46:59;;;;;;;6.20;5.60;;;2.40;99.90;;;;;;4995422;28;20534;-61
2020/12/27 04:49:25;;;;;;;6.47;4.80;;;2.40;99.90;;;;;;4995577;28;20565;-60
2020/12/27 04:51:53;;;;;;;5.40;4.90;;;2.40;99.90;;;;;;4996366;28;20820;-60
2020/12/27 04:54:26;;;;;;;6.10;5.40;;;2.40;99.90;;;;;;4997480;28;20442;-58
2020/12/27 04:56:53;;;;;;;8.03;5.10;;;2.40;99.90;;;;;;4996588;28;20526;-61
2020/12/27 04:59:19;;;;;;;7.00;5.33;;;2.40;99.90;;;;;;4997024;28;20481;-59
2020/12/27 05:01:45;;;;;;;8.23;5.40;;;2.40;99.90;;;;;;4999208;28;20457;-59
2020/12/27 05:04:17;;;;;;;6.87;5.47;;;2.40;99.90;;;;;;4998133;28;20461;-61
2020/12/27 05:06:44;;;;;;;6.63;4.50;;;2.40;99.90;;;;;;5000101;28;20466;-60
2020/12/27 05:09:13;;;;;;;10.70;4.93;;;2.30;99.90;;;;;;4997682;28;20461;-62
2020/12/27 05:11:39;;;;;;;6.20;5.50;;;2.30;99.90;;;;;;4999548;28;20840;-61
2020/12/27 05:14:06;;;;;;;6.70;5.03;;;2.30;99.90;;;;;;4995555;28;20470;-60
2020/12/27 05:16:32;;;;;;;5.70;4.83;;;2.30;99.90;;;;;;4995164;28;20466;-61
2020/12/27 05:18:59;;;;;;;6.10;4.60;;;2.30;99.90;;;;;;4995348;28;20462;-60
2020/12/27 05:21:26;;;;;;;7.70;5.53;;;2.30;99.90;;;;;;4995320;28;20466;-61
2020/12/27 05:23:52;;;;;;;6.90;5.57;;;2.30;99.90;;;;;;4995384;28;20509;-60
2020/12/27 05:26:19;;;;;;;7.47;4.90;;;2.30;99.90;;;;;;4995421;28;20472;-60
2020/12/27 05:28:45;;;;;;;5.80;4.90;;;2.30;99.90;;;;;;4995242;28;20458;-61
2020/12/27 05:31:14;;;;;;;8.33;5.50;;;2.30;99.90;;;;;;4995209;28;20457;-60
2020/12/27 05:33:41;;;;;;;7.90;5.97;;;2.30;99.90;;;;;;4995112;28;20476;-60
2020/12/27 05:36:08;;;;;;;8.63;5.50;;;2.30;99.90;;;;;;4995149;28;20457;-61
2020/12/27 05:38:34;;;;;;;9.53;5.07;;;2.30;99.90;;;;;;4995080;28;20927;-61
2020/12/27 05:41:01;;;;;;;9.80;5.23;;;2.30;99.90;;;;;;4995066;28;20453;-61
2020/12/27 05:43:27;;;;;;;7.67;6.37;;;2.30;99.90;;;;;;4995116;28;20516;-61
2020/12/27 05:45:56;;;;;;;6.80;5.37;;;2.20;99.90;;;;;;4995093;28;20534;-61
2020/12/27 05:48:23;;;;;;;8.37;4.83;;;2.20;99.90;;;;;;4995118;28;20485;-60
2020/12/27 05:50:51;;;;;;;6.93;5.40;;;2.20;99.90;;;;;;4995053;28;20461;-60
2020/12/27 05:53:18;;;;;;;6.93;5.37;;;2.20;99.90;;;;;;4994831;28;20795;-61
2020/12/27 05:55:46;;;;;;;6.70;5.00;;;2.20;99.90;;;;;;4995076;28;20469;-62
2020/12/27 05:58:18;;;;;;;5.37;4.87;;;2.20;99.90;;;;;;4994970;28;20512;-61
2020/12/27 06:00:49;;;;;;;5.53;5.00;;;2.10;99.90;;;;;;4997944;28;20525;-61
2020/12/27 06:03:21;;;;;;;9.27;6.00;;;2.10;99.90;;;;;;4998526;28;20446;-61
2020/12/27 06:06:44;;;;;;;6.40;5.60;;;2.00;99.90;;;;;;4998284;28;20930;-61
2020/12/27 06:09:27;;;;;;;8.00;5.63;;;2.00;99.90;;;;;;4919677;29;20488;-60
2020/12/27 06:11:54;;;;;;;6.37;5.23;;;2.00;99.90;;;;;;4919786;29;20484;-61
2020/12/27 06:14:40;;;;;;;7.70;5.90;;;1.90;99.90;;;;;;4963168;28;20489;-62
2020/12/27 06:17:11;;;;;;;9.17;5.10;;;1.90;99.90;;;;;;4998125;28;20951;-61
2020/12/27 06:19:47;;;;;;;7.80;5.47;;;1.90;99.90;;;;;;4997899;28;20464;-62
2020/12/27 06:22:25;;;;;;;8.53;5.70;;;1.90;99.90;;;;;;4998064;28;20782;-61
2020/12/27 06:24:53;;;;;;;5.83;4.77;;;1.90;99.90;;;;;;4998017;28;20449;-61
2020/12/27 06:27:19;;;;;;;6.63;5.23;;;1.90;99.90;;;;;;4997764;28;20486;-60
2020/12/27 06:29:50;;;;;;;7.83;5.13;;;1.90;99.90;;;;;;4998071;28;20790;-61
2020/12/27 06:32:20;;;;;;;8.40;5.60;;;1.90;99.90;;;;;;4998088;28;20466;-63
2020/12/27 06:34:46;;;;;;;9.23;5.40;;;1.90;99.90;;;;;;4997562;28;20512;-61
2020/12/27 06:37:15;;;;;;;6.37;5.13;;;1.90;99.90;;;;;;4997898;28;20779;-61
2020/12/27 06:39:44;;;;;;;8.07;5.10;;;1.90;99.90;;;;;;4997858;28;20514;-60
2020/12/27 06:42:14;;;;;;;8.83;5.40;;;1.90;99.90;;;;;;4998364;28;20472;-61
2020/12/27 06:44:41;;;;;;;5.93;4.93;;;1.90;99.90;;;;;;4998070;28;20464;-62
2020/12/27 06:47:08;;;;;;;6.67;4.57;;;1.90;99.90;;;;;;4998499;28;20478;-60
2020/12/27 06:49:34;;;;;;;7.70;5.43;;;1.90;99.90;;;;;;4997790;28;20462;-60
2020/12/27 06:52:18;;;;;;;6.53;4.73;;;1.90;99.90;;;;;;4997780;28;20490;-61
2020/12/27 06:54:47;;;;;;;6.50;4.63;;;1.90;99.90;;;;;;4997546;28;20449;-61
2020/12/27 06:57:43;;;;;;;5.00;4.50;;;1.90;99.90;;;;;;4997855;28;20484;-61
2020/12/27 07:00:23;;;;;;;4.80;3.90;;;2.00;99.90;;;;;;4997849;28;20450;-60
2020/12/27 07:02:49;;;;;;;7.23;5.20;;;2.00;99.90;;;;;;4998036;28;20499;-61
2020/12/27 07:05:29;;;;;;;6.97;4.27;;;2.00;99.90;;;;;;4997490;28;20494;-61
2020/12/27 07:07:55;;;;;;;7.80;4.50;;;2.00;99.90;;;;;;4997139;28;20486;-61
2020/12/27 07:10:23;;;;;;;5.80;4.20;;;2.00;99.90;;;;;;4996597;28;20928;-61
2020/12/27 07:12:50;;;;;;;6.97;4.83;;;2.00;99.90;;;;;;4997246;28;20512;-60
2020/12/27 07:15:17;;;;;;;5.47;3.97;;;2.00;99.90;;;;;;4997072;28;20477;-60
2020/12/27 07:17:44;;;;;;;6.40;4.50;;;2.10;99.90;;;;;;4997814;28;20466;-61
2020/12/27 07:20:15;;;;;;;5.33;4.07;;;2.10;99.90;;;;;;4996878;28;20461;-61
2020/12/27 07:22:42;;;;;;;4.20;3.80;;;2.10;99.90;;;;;;4996830;28;20518;-61
2020/12/27 07:25:12;;;;;;;5.90;4.00;;;2.10;99.90;;;;;;4996876;28;20457;-61
2020/12/27 07:27:39;;;;;;;5.80;3.90;;;2.10;99.90;;;;;;4996925;28;20907;-61
2020/12/27 07:30:07;;;;;;;3.90;3.57;;;2.10;99.90;;;;;;4996849;28;20470;-61
2020/12/27 07:32:39;;;;;;;6.37;3.57;;;2.10;99.90;;;;;;4997127;28;20542;-61
2020/12/27 07:35:09;;;;;;;11.40;4.20;;;2.10;99.90;;;;;;4996886;28;20470;-61
2020/12/27 07:37:35;;;;;;;4.23;3.53;;;2.10;99.90;;;;;;4996652;28;20512;-60
2020/12/27 07:40:02;;;;;;;4.93;3.50;;;2.00;99.90;;;;;;4997405;28;20524;-61
2020/12/27 07:42:30;;;;;;;4.57;3.40;;;2.00;99.90;;;;;;4996639;28;20462;-60
2020/12/27 07:44:58;;;;;;;4.87;3.53;;;2.10;99.90;;;;;;4996657;28;20458;-60
2020/12/27 07:47:25;;;;;;;3.77;2.90;;;2.00;99.90;;;;;;4996319;28;20835;-61
2020/12/27 07:50:09;;;;;;;4.30;3.10;;;2.00;99.90;;;;;;4996474;28;20476;-59
2020/12/27 07:52:43;;;;;;;4.23;3.47;;;2.10;99.90;;;;;;4996291;28;20493;-61
2020/12/27 07:55:09;;;;;;;3.27;2.90;;;2.10;99.90;;;;;;4996557;28;20462;-60
2020/12/27 07:57:36;;;;;;;3.00;2.70;;;2.00;99.90;;;;;;4996386;28;20468;-61
2020/12/27 08:00:07;;;;;;;8.20;2.90;;;2.10;99.90;;;;;;4996175;28;20465;-61
2020/12/27 08:02:34;;;;;;;4.47;2.93;;;2.00;99.90;;;;;;4996541;28;20442;-61
2020/12/27 08:05:02;;;;;;;4.37;3.00;;;2.00;99.90;;;;;;4996132;28;20469;-61
2020/12/27 08:07:29;;;;;;;4.73;2.90;;;2.00;99.90;;;;;;4995862;28;20970;-61
2020/12/27 08:09:55;;;;;;;3.33;2.90;;;2.00;99.90;;;;;;4996082;28;20552;-60
2020/12/27 08:12:21;;;;;;;5.00;3.30;;;2.00;99.90;;;;;;4996274;28;20958;-61
2020/12/27 08:14:47;;;;;;;4.40;3.03;;;2.00;99.90;;;;;;4996229;28;20493;-60
2020/12/27 08:17:14;;;;;;;3.33;2.60;;;2.00;99.90;;;;;;4995918;28;20469;-60
2020/12/27 08:19:41;;;;;;;2.90;2.33;;;2.00;99.90;;;;;;4996066;28;20524;-60
2020/12/27 08:22:07;;;;;;;3.43;3.13;;;2.00;99.90;;;;;;4995306;28;20473;-61
2020/12/27 08:24:33;;;;;;;3.37;2.63;;;2.00;99.90;;;;;;4995854;28;20458;-61
2020/12/27 08:27:01;;;;;;;3.47;2.70;;;2.00;99.90;;;;;;4995741;28;20485;-60
2020/12/27 08:29:27;;;;;;;3.07;2.60;;;2.00;99.90;;;;;;4995682;28;20462;-60
2020/12/27 08:31:55;;;;;;;2.33;2.13;;;2.00;99.90;;;;;;4995590;28;20524;-67
2020/12/27 08:34:22;;;;;;;3.30;3.00;;;2.00;99.90;;;;;;4995677;28;20531;-72
2020/12/27 08:36:51;;;;;;;4.23;2.70;;;2.00;99.90;;;;;;4995665;28;20500;-69
2020/12/27 08:39:22;;;;;;;5.10;2.67;;;2.00;99.90;;;;;;4995890;28;20450;-59
2020/12/27 08:42:02;;;;;;;6.13;2.83;;;2.00;99.90;;;;;;4995865;28;20751;-60
2020/12/27 08:44:47;;;;;;;3.40;2.53;;;2.00;99.90;;;;;;4995386;28;20458;-60
2020/12/27 08:47:39;;;;;;;4.60;3.33;;;2.10;99.90;;;;;;4987593;28;20794;-60
2020/12/27 08:50:09;;;;;;;3.23;2.60;;;2.10;99.90;;;;;;4995695;28;20453;-60
2020/12/27 08:52:35;;;;;;;3.23;2.87;;;2.10;99.90;;;;;;4995454;28;20493;-59
2020/12/27 08:55:04;;;;;;;3.40;2.60;;;2.10;99.90;;;;;;4995242;28;20509;-60
2020/12/27 08:57:31;;;;;;;3.03;2.73;;;2.10;99.90;;;;;;4995297;28;20924;-60
2020/12/27 09:00:04;;;;;;;5.20;3.37;;;2.10;99.90;;;;;;4995946;28;20458;-59
2020/12/27 09:02:30;;;;;;;3.27;2.80;;;2.10;99.90;;;;;;4995823;28;20510;-59
2020/12/27 09:05:00;;;;;;;3.63;2.80;;;2.10;99.90;;;;;;4997550;28;20854;-59
2020/12/27 09:07:31;;;;;;;3.13;2.67;;;2.10;99.90;;;;;;4995679;28;20504;-59
2020/12/27 09:10:07;;;;;;;3.30;2.50;;;2.10;99.90;;;;;;4995628;28;20501;-58
2020/12/27 09:12:33;;;;;;;5.47;2.47;;;2.10;99.90;;;;;;4995411;28;20481;-59
2020/12/27 09:14:59;;;;;;;2.17;2.00;;;2.20;99.90;;;;;;4995427;28;20597;-58
2020/12/27 09:17:28;;;;;;;5.63;2.80;;;2.20;99.90;;;;;;4995377;28;20499;-59
2020/12/27 09:19:56;;;;;;;3.33;2.77;;;2.30;99.90;;;;;;4995386;28;20519;-58
2020/12/27 09:22:22;;;;;;;5.53;3.00;;;2.30;99.90;;;;;;4995000;28;21022;-58
2020/12/27 09:25:06;;;;;;;5.10;2.80;;;2.20;99.90;;;;;;4995172;28;20473;-59
2020/12/27 09:27:32;;;;;;;5.33;2.70;;;2.30;99.90;;;;;;4995406;28;20493;-58
2020/12/27 09:30:01;;;;;;;10.17;3.77;;;2.30;99.90;;;;;;4995862;28;20462;-59
2020/12/27 09:32:32;;;;;;;3.20;2.90;;;2.30;99.90;;;;;;4995065;28;20469;-58
2020/12/27 09:34:58;;;;;;;3.10;2.60;;;2.20;99.90;;;;;;4998602;28;20442;-58
2020/12/27 09:37:25;;;;;;;6.10;3.63;;;2.20;99.90;;;;;;4999055;28;20457;-57
2020/12/27 09:39:56;;;;;;;3.93;2.53;;;2.20;99.90;;;;;;4998806;28;20461;-58
2020/12/27 09:42:24;;;;;;;3.20;2.90;;;2.30;99.90;;;;;;4998862;28;20488;-60
2020/12/27 09:44:51;;;;;;;4.70;3.80;;;2.30;99.90;;;;;;5002643;28;20469;-60
2020/12/27 09:47:24;;;;;;;3.53;2.50;;;2.30;99.90;;;;;;4998584;28;20559;-60
2020/12/27 09:50:05;;;;;;;5.90;2.90;;;2.30;99.90;;;;;;4998556;28;20462;-60
2020/12/27 09:52:31;;;;;;;2.67;2.47;;;2.40;99.90;;;;;;4998531;28;20489;-59
2020/12/27 09:55:00;;;;;;;3.50;3.20;;;2.40;99.90;;;;;;4998805;28;20458;-60
2020/12/27 09:57:27;;;;;;;3.77;3.10;;;2.40;99.90;;;;;;4998665;28;20841;-60
2020/12/27 09:59:54;;;;;;;4.73;3.70;;;2.50;99.90;;;;;;4998581;28;20461;-60
2020/12/27 10:02:21;;;;;;;3.73;3.10;;;2.50;99.90;;;;;;4999412;28;20799;-62
2020/12/27 10:04:47;;;;;;;4.73;3.60;;;2.50;99.90;;;;;;4998540;28;20902;-61
2020/12/27 10:07:14;;;;;;;3.03;2.80;;;2.50;99.90;;;;;;4998489;28;20492;-61
2020/12/27 10:09:40;;;;;;;4.03;3.10;;;2.50;99.90;;;;;;4998621;28;20552;-60
2020/12/27 10:12:06;;;;;;;4.43;3.30;;;2.50;99.90;;;;;;4998677;28;20923;-61
2020/12/27 10:14:33;;;;;;;4.43;3.40;;;2.50;99.90;;;;;;4999264;28;20764;-61
2020/12/27 10:17:00;;;;;;;7.83;4.33;;;2.50;99.90;;;;;;4999058;28;20462;-61
2020/12/27 10:19:27;;;;;;;3.70;2.93;;;2.50;99.90;;;;;;4998834;28;20516;-61
2020/12/27 10:21:53;;;;;;;3.77;3.03;;;2.40;99.90;;;;;;4998620;28;20568;-60
2020/12/27 10:24:19;;;;;;;3.90;3.53;;;2.40;99.90;;;;;;4999232;28;20458;-60
2020/12/27 10:26:47;;;;;;;4.43;3.00;;;2.50;99.90;;;;;;4999071;28;20520;-61
2020/12/27 10:29:14;;;;;;;6.37;4.07;;;2.50;99.90;;;;;;4998376;28;20453;-61
2020/12/27 10:31:41;;;;;;;4.60;3.93;;;2.50;99.90;;;;;;4998448;28;20468;-62
2020/12/27 10:34:07;;;;;;;5.90;3.83;;;2.50;99.90;;;;;;4997997;28;20465;-60
2020/12/27 10:36:33;;;;;;;4.40;3.73;;;2.40;99.90;;;;;;4997811;28;20457;-61
2020/12/27 10:38:59;;;;;;;4.47;3.80;;;2.40;99.90;;;;;;4997972;28;20458;-61
2020/12/27 10:41:25;;;;;;;5.33;3.70;;;2.50;99.90;;;;;;4997830;28;20501;-60
2020/12/27 10:43:51;;;;;;;4.20;3.43;;;2.50;99.90;;;;;;4997675;28;20462;-61
2020/12/27 10:46:18;;;;;;;3.50;3.10;;;2.50;99.90;;;;;;4996419;28;20462;-60
2020/12/27 10:48:47;;;;;;;7.33;3.50;;;2.50;99.90;;;;;;4997356;28;20915;-61
2020/12/27 10:51:13;;;;;;;4.20;3.40;;;2.50;99.90;;;;;;4997195;28;20900;-60
2020/12/27 10:53:39;;;;;;;3.70;3.30;;;2.60;99.90;;;;;;4997148;28;20481;-60
2020/12/27 10:56:07;;;;;;;3.83;3.17;;;2.60;99.90;;;;;;4997465;28;20462;-60
2020/12/27 10:58:33;;;;;;;5.63;4.40;;;2.60;99.90;;;;;;4997855;28;20462;-60
2020/12/27 11:00:59;;;;;;;4.17;3.40;;;2.60;99.90;;;;;;4997775;28;20474;-61
2020/12/27 11:03:25;;;;;;;4.10;3.50;;;2.60;99.90;;;;;;4997440;28;20795;-61
2020/12/27 11:05:52;;;;;;;3.87;3.57;;;2.60;99.90;;;;;;4997903;28;20520;-61
2020/12/27 11:08:18;;;;;;;4.40;3.80;;;2.70;99.90;;;;;;4997286;28;20509;-60
2020/12/27 11:10:44;;;;;;;6.30;4.70;;;2.70;99.90;;;;;;4997553;28;20458;-60
2020/12/27 11:13:10;;;;;;;5.27;3.50;;;2.70;99.90;;;;;;4998237;28;20470;-60
2020/12/27 11:15:37;;;;;;;4.20;3.80;;;2.70;99.90;;;;;;4997623;28;20470;-60
2020/12/27 11:18:04;;;;;;;4.47;3.30;;;2.70;99.90;;;;;;4997993;28;20469;-59
2020/12/27 11:20:30;;;;;;;4.03;3.23;;;2.80;99.90;;;;;;4998326;28;20457;-59
2020/12/27 11:22:57;;;;;;;4.70;3.23;;;2.80;99.90;;;;;;4997962;28;20469;-60
2020/12/27 11:25:23;;;;;;;3.60;3.30;;;2.90;99.90;;;;;;4997960;28;20458;-61
2020/12/27 11:27:49;;;;;;;4.20;3.50;;;2.90;99.90;;;;;;5003987;28;20485;-60
2020/12/27 11:30:15;;;;;;;7.60;3.47;;;2.80;99.90;;;;;;5002121;28;20458;-60
2020/12/27 11:32:42;;;;;;;5.40;3.63;;;2.90;99.90;;;;;;4998383;28;20525;-63
2020/12/27 11:35:08;;;;;;;4.17;3.70;;;2.90;99.90;;;;;;4997151;28;20473;-61
2020/12/27 11:37:34;;;;;;;5.80;3.67;;;2.90;99.90;;;;;;4997745;28;20458;-59
2020/12/27 11:40:01;;;;;;;4.80;3.80;;;2.90;99.90;;;;;;4996957;28;20473;-61
2020/12/27 11:42:27;;;;;;;5.40;3.30;;;2.90;99.90;;;;;;4996946;28;20781;-60
2020/12/27 11:44:53;;;;;;;4.07;2.70;;;2.90;99.90;;;;;;4996426;28;20462;-61
2020/12/27 11:47:20;;;;;;;4.93;3.13;;;2.90;99.90;;;;;;4996900;28;20484;-60
2020/12/27 11:49:46;;;;;;;4.40;3.43;;;2.90;99.90;;;;;;4996242;28;20457;-60
2020/12/27 11:52:13;;;;;;;4.70;3.53;;;2.80;99.90;;;;;;4996212;28;20946;-60
2020/12/27 11:54:39;;;;;;;6.23;3.30;;;2.80;99.90;;;;;;4997418;28;20761;-60
2020/12/27 11:57:06;;;;;;;3.80;2.77;;;2.90;99.90;;;;;;4995009;28;20465;-60
2020/12/27 11:59:33;;;;;;;4.77;3.10;;;3.00;99.90;;;;;;4996077;28;20485;-59
2020/12/27 12:01:59;;;;;;;4.53;2.80;;;3.00;99.90;;;;;;4996078;28;20549;-59
2020/12/27 12:04:26;;;;;;;3.20;2.90;;;3.00;99.90;;;;;;4996156;28;20472;-58
2020/12/27 12:06:52;;;;;;;6.77;2.93;;;3.00;99.90;;;;;;4997750;28;20458;-60
2020/12/27 12:09:18;;;;;;;4.87;2.70;;;3.00;99.90;;;;;;4997876;28;20978;-61
2020/12/27 12:11:44;;;;;;;3.27;2.90;;;3.00;99.90;;;;;;4995955;28;20462;-60
2020/12/27 12:14:11;;;;;;;4.90;3.33;;;3.00;99.90;;;;;;4995757;28;20462;-60
2020/12/27 12:16:37;;;;;;;3.33;3.03;;;3.10;99.90;;;;;;4995905;28;20717;-60
2020/12/27 12:19:04;;;;;;;3.60;2.50;;;3.10;99.90;;;;;;4995862;28;20454;-61
2020/12/27 12:21:30;;;;;;;3.30;2.37;;;3.20;99.90;;;;;;4996238;28;20458;-60
2020/12/27 12:23:59;;;;;;;2.97;2.30;;;3.20;99.90;;;;;;4995667;28;20461;-60
2020/12/27 12:26:26;;;;;;;7.70;2.50;;;3.20;99.90;;;;;;4995801;28;20466;-59
2020/12/27 12:28:53;;;;;;;4.43;2.50;;;3.20;99.90;;;;;;4995580;28;20489;-59
2020/12/27 12:31:21;;;;;;;2.53;2.33;;;3.20;99.90;;;;;;4995813;28;20486;-61
2020/12/27 12:33:48;;;;;;;3.40;2.37;;;3.30;99.90;;;;;;4995574;28;20834;-60
2020/12/27 12:36:15;;;;;;;2.27;1.93;;;3.30;99.90;;;;;;4995449;28;20487;-60
2020/12/27 12:38:42;;;;;;;2.83;2.33;;;3.40;99.90;;;;;;4995582;28;20454;-60
2020/12/27 12:41:11;;;;;;;2.23;2.00;;;3.40;99.90;;;;;;4995839;28;20782;-61
2020/12/27 12:43:38;;;;;;;2.83;2.13;;;3.40;99.90;;;;;;4995569;28;20982;-60
2020/12/27 12:46:04;;;;;;;2.87;2.57;;;3.50;99.90;;;;;;4995171;28;20462;-60
2020/12/27 12:48:31;;;;;;;3.80;1.90;;;3.50;99.90;;;;;;4995322;28;20486;-60
2020/12/27 12:50:58;;;;;;;2.53;2.27;;;3.50;99.90;;;;;;4995416;28;20458;-60
2020/12/27 12:53:24;;;;;;;2.83;2.33;;;3.50;99.90;;;;;;4995560;28;20489;-59
2020/12/27 12:55:50;;;;;;;3.03;2.50;;;3.50;99.90;;;;;;4995066;28;20874;-59
2020/12/27 12:58:16;;;;;;;2.77;2.03;;;3.60;99.90;;;;;;4995255;28;20454;-59